Spanish Flat, California
Current Conditions -  °F | °C
As of 2:54 PM on Sunday 21 Dec 2014 (Local Time) from KAPC Reporting Station
Scattered Clouds Scattered Clouds  
Wind Chill: 64°   Ceiling: Unl
Heat Index: 64°   Visibility: 10mi
Dew Point: 60°   Wind: 13mph
Humidity: 87%   Direction: 270°W
Pressure: 30.24"   Gusts: NA
Location:  38.3929°N, 122.291°W
Report Text: KAPC 212254Z 27011KT 10SM SCT016 18/16 A3024 RMK AO2 SLP230 T01780156
Loading
Personal Weather Stations






























Interactive Weather Map New forecast layout! Learn more

10-Day Weather Forecast

Advertisements
Track Severe Weather on mobile